createdAt,value
2023-03-08T00:03:02.852Z,97124.66
2023-03-08T00:06:12.199Z,97124.89
2023-03-08T00:09:18.584Z,97125.42
2023-03-08T00:12:23.109Z,97123.63
2023-03-08T00:15:29.435Z,97126.60
2023-03-08T00:18:34.117Z,97127.09
2023-03-08T00:21:40.368Z,97125.23
2023-03-08T00:24:46.773Z,97125.06
2023-03-08T00:27:51.368Z,97122.02
2023-03-08T00:31:02.156Z,97119.73
2023-03-08T00:34:08.545Z,97119.65
2023-03-08T00:37:13.140Z,97119.86
2023-03-08T00:40:19.674Z,97114.02
2023-03-08T00:43:26.484Z,97119.01
2023-03-08T00:46:32.803Z,97122.84
2023-03-08T00:49:37.362Z,97115.94
2023-03-08T00:52:43.686Z,97116.04
2023-03-08T00:55:54.996Z,97116.16
2023-03-08T00:59:01.294Z,97119.27
2023-03-08T01:02:05.925Z,97119.24
2023-03-08T01:05:13.767Z,97111.33
2023-03-08T01:08:21.197Z,97114.03
2023-03-08T01:11:28.916Z,97113.98
2023-03-08T01:14:35.219Z,97120.13
2023-03-08T01:17:39.918Z,97123.00
2023-03-08T01:20:46.352Z,97121.88
2023-03-08T01:23:53.689Z,97122.83
2023-03-08T01:27:01.035Z,97123.41
2023-03-08T01:30:08.990Z,97121.04
2023-03-08T01:33:15.306Z,97128.05
2023-03-08T01:36:23.563Z,97129.55
2023-03-08T01:39:30.036Z,97127.98
2023-03-08T01:42:38.635Z,97128.66
2023-03-08T01:46:06.913Z,97129.75
2023-03-08T01:49:16.387Z,97131.97
2023-03-08T01:52:27.560Z,97128.52
2023-03-08T01:55:35.319Z,97128.60
2023-03-08T01:58:43.104Z,97132.90
2023-03-08T02:01:50.261Z,97132.92
2023-03-08T02:04:56.675Z,97126.80
2023-03-08T02:08:01.358Z,97120.67
2023-03-08T02:11:08.340Z,97125.30
2023-03-08T02:14:14.805Z,97128.48
2023-03-08T02:17:21.347Z,97125.85
2023-03-08T02:20:32.182Z,97129.20
2023-03-08T02:23:38.564Z,97132.16
2023-03-08T02:26:43.256Z,97136.05
2023-03-08T02:29:49.725Z,97137.21
2023-03-08T02:32:56.205Z,97137.92
2023-03-08T02:36:05.189Z,97138.34
2023-03-08T02:39:11.581Z,97135.88
2023-03-08T02:42:16.108Z,97135.72
2023-03-08T02:45:22.459Z,97134.85
2023-03-08T02:48:27.015Z,97135.73
2023-03-08T02:51:33.331Z,97133.39
2023-03-08T02:54:38.018Z,97133.17
2023-03-08T02:57:44.368Z,97133.98
2023-03-08T03:00:48.894Z,97135.00
2023-03-08T03:03:56.813Z,97134.33
2023-03-08T03:07:03.892Z,97133.71
2023-03-08T03:10:13.844Z,97137.69
2023-03-08T03:13:20.712Z,97133.35
2023-03-08T03:16:28.051Z,97134.69
2023-03-08T03:19:34.421Z,97135.94
2023-03-08T03:22:39.097Z,97128.80
2023-03-08T03:25:45.431Z,97125.04
2023-03-08T03:28:50.233Z,97128.39
2023-03-08T03:31:56.512Z,97132.34
2023-03-08T03:35:03.070Z,97138.51
2023-03-08T03:38:09.436Z,97135.71
2023-03-08T03:41:14.871Z,97134.53
2023-03-08T03:44:21.189Z,97138.34
2023-03-08T03:47:25.753Z,97149.54
2023-03-08T03:50:32.537Z,97151.40
2023-03-08T03:53:39.236Z,97161.55
2023-03-08T03:56:45.488Z,97169.15
2023-03-08T03:59:51.768Z,97172.29
2023-03-08T04:02:58.096Z,97172.45
2023-03-08T04:06:08.274Z,97177.60
2023-03-08T04:09:17.683Z,97185.96
2023-03-08T04:12:24.044Z,97190.32
2023-03-08T04:15:29.399Z,97192.54
2023-03-08T04:18:36.209Z,97193.77
2023-03-08T04:21:42.634Z,97198.77
2023-03-08T04:24:47.310Z,97196.23
2023-03-08T04:27:53.675Z,97201.51
2023-03-08T04:30:58.202Z,97208.33
2023-03-08T04:34:05.420Z,97214.42
2023-03-08T04:37:12.086Z,97225.08
2023-03-08T04:40:19.081Z,97238.77
2023-03-08T04:43:25.518Z,97247.98
2023-03-08T04:46:30.243Z,97253.77
2023-03-08T04:49:36.644Z,97259.20
2023-03-08T04:52:41.598Z,97259.48
2023-03-08T04:55:47.947Z,97261.23
2023-03-08T04:58:52.449Z,97265.33
2023-03-08T05:01:58.817Z,97270.92
2023-03-08T05:05:04.477Z,97273.60
2023-03-08T05:08:10.897Z,97281.05
2023-03-08T05:11:17.855Z,97284.38
2023-03-08T05:14:24.229Z,97288.30
2023-03-08T05:17:29.230Z,97298.85
2023-03-08T05:20:35.617Z,97305.21
2023-03-08T05:23:41.949Z,97316.41
2023-03-08T05:26:46.565Z,97321.09
2023-03-08T05:29:54.597Z,97323.46
2023-03-08T05:33:00.931Z,97328.01
2023-03-08T05:36:06.227Z,97327.77
2023-03-08T05:39:13.636Z,97327.09
2023-03-08T05:42:20.917Z,97329.06
2023-03-08T05:45:27.483Z,97324.31
2023-03-08T05:48:34.823Z,97325.59
2023-03-08T05:51:41.331Z,97328.23
2023-03-08T05:54:47.751Z,97324.73
2023-03-08T05:57:52.422Z,97329.15
2023-03-08T06:00:58.748Z,97333.50
2023-03-08T06:04:03.312Z,97343.04
2023-03-08T06:07:09.753Z,97343.90
2023-03-08T06:10:15.992Z,97337.78
2023-03-08T06:13:22.353Z,97334.61
2023-03-08T06:16:27.082Z,97336.64
2023-03-08T06:19:33.633Z,97341.48
2023-03-08T06:22:40.059Z,97350.16
2023-03-08T06:25:46.234Z,97355.91
2023-03-08T06:28:52.588Z,97352.52
2023-03-08T06:31:57.147Z,97352.63
2023-03-08T06:35:03.464Z,97350.70
2023-03-08T06:38:08.151Z,97357.80
2023-03-08T06:41:15.884Z,97361.10
2023-03-08T06:44:22.537Z,97363.56
2023-03-08T06:47:31.157Z,97368.42
2023-03-08T06:50:38.133Z,97371.05
2023-03-08T06:53:44.465Z,97367.09
2023-03-08T06:56:49.439Z,97365.67
2023-03-08T06:59:55.774Z,97366.73
2023-03-08T07:03:00.608Z,97367.45
2023-03-08T07:06:09.810Z,97376.84
2023-03-08T07:09:16.348Z,97394.48
2023-03-08T07:12:22.686Z,97396.99
2023-03-08T07:15:27.683Z,97395.38
2023-03-08T07:18:34.528Z,97400.66
2023-03-08T07:21:44.506Z,97397.05
2023-03-08T07:24:51.764Z,97389.41
2023-03-08T07:27:59.813Z,97392.89
2023-03-08T07:31:06.495Z,97402.60
2023-03-08T07:34:13.392Z,97409.41
2023-03-08T07:37:19.678Z,97427.02
2023-03-08T07:40:26.064Z,97430.32
2023-03-08T07:43:32.378Z,97434.50
2023-03-08T07:46:37.060Z,97434.95
2023-03-08T07:49:43.385Z,97439.29
2023-03-08T07:52:47.944Z,97439.61
2023-03-08T07:55:54.373Z,97443.33
2023-03-08T07:59:00.757Z,97448.48
2023-03-08T08:02:05.743Z,97450.14
2023-03-08T08:05:12.648Z,97452.83
2023-03-08T08:08:19.032Z,97452.41
2023-03-08T08:11:24.029Z,97453.41
2023-03-08T08:14:30.368Z,97460.27
2023-03-08T08:17:35.021Z,97464.53
2023-03-08T08:20:41.725Z,97473.35
2023-03-08T08:23:48.684Z,97483.46
2023-03-08T08:26:55.141Z,97480.89
2023-03-08T08:30:01.894Z,97475.98
2023-03-08T08:33:08.156Z,97474.46
2023-03-08T08:36:17.424Z,97484.24
2023-03-08T08:39:23.839Z,97482.61
2023-03-08T08:42:28.420Z,97474.38
2023-03-08T08:45:34.737Z,97470.80
2023-03-08T08:48:39.312Z,97464.73
2023-03-08T08:51:45.609Z,97466.36
2023-03-08T08:54:50.327Z,97468.04
2023-03-08T08:57:56.675Z,97459.30
2023-03-08T09:01:01.190Z,97459.09
2023-03-08T09:04:07.547Z,97465.88
2023-03-08T09:10:43.607Z,97456.86
2023-03-08T09:13:50.301Z,97453.27
2023-03-08T09:16:56.857Z,97455.50
2023-03-08T09:20:06.162Z,97459.33
2023-03-08T09:23:12.779Z,97460.70
2023-03-08T09:26:19.763Z,97451.27
2023-03-08T09:29:26.356Z,97452.69
2023-03-08T09:32:34.169Z,97452.69
2023-03-08T09:35:40.904Z,97454.96
2023-03-08T09:38:48.432Z,97453.70
2023-03-08T09:41:57.538Z,97457.26
2023-03-08T09:45:28.384Z,97446.70
2023-03-08T09:48:35.903Z,97438.58
2023-03-08T09:51:47.511Z,97441.13
2023-03-08T09:54:55.170Z,97442.91
2023-03-08T09:58:04.269Z,97442.41
2023-03-08T10:01:24.318Z,97447.73
2023-03-08T10:04:47.082Z,97458.84
2023-03-08T10:08:00.438Z,97460.89
2023-03-08T10:11:16.871Z,97457.77
2023-03-08T10:14:27.815Z,97450.99
2023-03-08T10:17:45.090Z,97448.22
2023-03-08T10:20:51.777Z,97445.55
2023-03-08T10:24:03.942Z,97433.96
2023-03-08T10:27:21.925Z,97433.38
2023-03-08T10:30:30.268Z,97435.04
2023-03-08T10:33:38.033Z,97431.61
2023-03-08T10:36:53.839Z,97425.71
2023-03-08T10:40:05.575Z,97420.98
2023-03-08T10:43:26.579Z,97421.64
2023-03-08T10:46:33.994Z,97421.92
2023-03-08T10:49:40.578Z,97420.54
2023-03-08T10:52:48.876Z,97409.02
2023-03-08T10:55:56.425Z,97398.40
2023-03-08T10:59:04.345Z,97398.00
2023-03-08T11:02:23.001Z,97394.58
2023-03-08T11:05:29.963Z,97395.14
2023-03-08T11:08:39.416Z,97388.16
2023-03-08T11:11:46.255Z,97382.22
2023-03-08T11:14:53.285Z,97378.40
2023-03-08T11:18:05.884Z,97379.84
2023-03-08T11:21:22.229Z,97378.74
2023-03-08T11:24:42.368Z,97383.52
2023-03-08T11:28:09.255Z,97381.48
2023-03-08T11:31:27.604Z,97380.09
2023-03-08T11:34:50.642Z,97382.02
2023-03-08T11:38:03.903Z,97377.18
2023-03-08T11:41:22.512Z,97370.92
2023-03-08T11:44:52.278Z,97366.36
2023-03-08T11:48:22.572Z,97362.05
2023-03-08T11:51:36.527Z,97365.40
2023-03-08T11:54:54.314Z,97363.85
2023-03-08T11:58:06.542Z,97357.69
2023-03-08T12:01:19.517Z,97350.40
2023-03-08T12:04:38.859Z,97345.77
2023-03-08T12:07:50.352Z,97337.06
2023-03-08T12:11:02.037Z,97330.54
2023-03-08T12:14:17.722Z,97330.52
2023-03-08T12:17:27.189Z,97326.73
2023-03-08T12:20:40.172Z,97322.55
2023-03-08T12:23:57.330Z,97322.90
2023-03-08T12:27:11.334Z,97323.55
2023-03-08T12:30:27.757Z,97329.14
2023-03-08T12:33:35.250Z,97332.95
2023-03-08T12:36:43.687Z,97322.14
2023-03-08T12:39:59.234Z,97318.57
2023-03-08T12:43:11.532Z,97311.09
2023-03-08T12:46:18.258Z,97301.01
2023-03-08T12:49:31.576Z,97301.77
2023-03-08T12:52:38.218Z,97294.08
2023-03-08T12:55:45.030Z,97284.09
2023-03-08T12:58:57.129Z,97281.48
2023-03-08T13:02:26.878Z,97281.71
2023-03-08T13:05:36.590Z,97288.76
2023-03-08T13:08:50.422Z,97287.45
2023-03-08T13:12:21.937Z,97290.29
2023-03-08T13:15:29.449Z,97285.42
2023-03-08T13:18:37.119Z,97277.89
2023-03-08T13:21:52.229Z,97276.91
2023-03-08T13:25:03.774Z,97273.77
2023-03-08T13:28:13.842Z,97266.48
2023-03-08T13:31:23.319Z,97263.61
2023-03-08T13:34:32.603Z,97260.63
2023-03-08T13:37:39.923Z,97258.42
2023-03-08T13:40:54.563Z,97253.95
2023-03-08T13:44:05.720Z,97250.70
2023-03-08T13:47:25.837Z,97252.58
2023-03-08T13:50:35.364Z,97252.79
2023-03-08T13:53:44.418Z,97247.58
2023-03-08T13:56:55.820Z,97244.13
2023-03-08T14:00:22.084Z,97245.35
2023-03-08T14:03:31.879Z,97243.66
2023-03-08T14:06:41.652Z,97239.98
2023-03-08T14:09:48.477Z,97237.02
2023-03-08T14:12:55.310Z,97229.96
2023-03-08T14:16:04.467Z,97226.55
2023-03-08T14:19:25.445Z,97228.65
2023-03-08T14:22:39.780Z,97233.70
2023-03-08T14:25:57.346Z,97233.27
2023-03-08T14:29:21.882Z,97228.77
2023-03-08T14:32:36.165Z,97216.92
2023-03-08T14:35:46.714Z,97212.98
2023-03-08T14:38:53.758Z,97206.90
2023-03-08T14:42:09.808Z,97201.52
2023-03-08T14:45:22.298Z,97198.10
2023-03-08T14:48:33.658Z,97184.30
2023-03-08T14:51:43.621Z,97176.91
2023-03-08T14:54:50.369Z,97169.89
2023-03-08T14:58:00.373Z,97177.40
2023-03-08T15:01:07.710Z,97174.90
2023-03-08T15:04:19.803Z,97168.67
2023-03-08T15:07:32.942Z,97157.89
2023-03-08T15:10:41.312Z,97154.20
2023-03-08T15:13:48.435Z,97153.73
2023-03-08T15:16:56.140Z,97152.09
2023-03-08T15:20:02.840Z,97151.30
2023-03-08T15:23:10.610Z,97148.52
2023-03-08T15:26:21.096Z,97149.80
2023-03-08T15:29:32.302Z,97151.34
2023-03-08T15:32:39.312Z,97151.27
2023-03-08T15:35:46.891Z,97159.93
2023-03-08T15:38:54.059Z,97157.77
2023-03-08T15:42:01.289Z,97165.95
2023-03-08T15:45:09.179Z,97172.25
2023-03-08T15:48:18.870Z,97168.23
2023-03-08T15:51:30.337Z,97164.59
2023-03-08T15:54:37.179Z,97161.07
2023-03-08T15:57:44.424Z,97157.55
2023-03-08T16:00:52.359Z,97154.23
2023-03-08T16:03:59.937Z,97158.29
2023-03-08T16:07:06.868Z,97164.60
2023-03-08T16:10:16.490Z,97167.61
2023-03-08T16:13:23.551Z,97168.59
2023-03-08T16:16:44.377Z,97175.75
2023-03-08T16:19:52.033Z,97172.57
2023-03-08T16:22:58.840Z,97163.00
2023-03-08T16:26:15.221Z,97163.08
2023-03-08T16:29:22.558Z,97156.62
2023-03-08T16:32:29.503Z,97146.20
2023-03-08T16:35:36.271Z,97142.96
2023-03-08T16:38:43.113Z,97143.96
2023-03-08T16:41:50.145Z,97142.34
2023-03-08T16:44:58.060Z,97142.38
2023-03-08T16:48:05.564Z,97137.05
2023-03-08T16:51:17.471Z,97136.63
2023-03-08T16:54:24.692Z,97140.52
2023-03-08T16:57:31.455Z,97143.12
2023-03-08T17:00:38.211Z,97140.46
2023-03-08T17:03:45.439Z,97133.27
2023-03-08T17:06:52.310Z,97134.28
2023-03-08T17:09:59.077Z,97122.14
2023-03-08T17:13:05.868Z,97119.39
2023-03-08T17:16:14.436Z,97117.88
2023-03-08T17:19:21.362Z,97116.17
2023-03-08T17:22:28.338Z,97122.20
2023-03-08T17:25:38.571Z,97128.04
2023-03-08T17:28:46.306Z,97130.67
2023-03-08T17:31:53.641Z,97125.04
2023-03-08T17:35:00.358Z,97124.70
2023-03-08T17:38:07.201Z,97124.28
2023-03-08T17:41:15.434Z,97121.61
2023-03-08T17:44:22.391Z,97120.48
2023-03-08T17:47:29.345Z,97113.80
2023-03-08T17:50:36.713Z,97108.36
2023-03-08T17:53:45.515Z,97109.68
2023-03-08T17:56:52.292Z,97107.13
2023-03-08T17:59:59.376Z,97106.16
2023-03-08T18:03:06.065Z,97105.36
2023-03-08T18:06:23.605Z,97096.91
2023-03-08T18:09:32.206Z,97098.38
2023-03-08T18:12:39.011Z,97090.80
2023-03-08T18:15:45.838Z,97090.13
2023-03-08T18:18:52.829Z,97084.84
2023-03-08T18:21:59.966Z,97082.31
2023-03-08T18:25:06.918Z,97068.73
2023-03-08T18:28:13.730Z,97060.17
2023-03-08T18:31:23.540Z,97053.41
2023-03-08T18:34:30.695Z,97061.98
2023-03-08T18:37:37.768Z,97056.00
2023-03-08T18:40:45.017Z,97044.70
2023-03-08T18:43:52.424Z,97041.04
2023-03-08T18:46:59.208Z,97047.43
2023-03-08T18:50:11.241Z,97043.17
2023-03-08T18:53:18.392Z,97032.34
2023-03-08T18:56:26.160Z,97037.08
2023-03-08T18:59:33.521Z,97031.21
2023-03-08T19:02:40.353Z,97018.27
2023-03-08T19:05:47.290Z,97016.07
2023-03-08T19:08:54.693Z,97005.29
2023-03-08T19:12:03.175Z,96999.13
2023-03-08T19:15:11.868Z,96991.04
2023-03-08T19:18:18.661Z,96987.67
2023-03-08T19:21:27.059Z,96978.61
2023-03-08T19:24:34.481Z,96972.96
2023-03-08T19:27:41.377Z,96963.30
2023-03-08T19:30:48.357Z,96955.16
2023-03-08T19:33:55.497Z,96953.30
2023-03-08T19:37:03.264Z,96942.48
2023-03-08T19:40:12.216Z,96939.61
2023-03-08T19:43:19.168Z,96939.23
2023-03-08T19:46:26.156Z,96934.45
2023-03-08T19:49:34.349Z,96931.45
2023-03-08T19:52:41.241Z,96925.36
2023-03-08T19:55:53.659Z,96926.73
2023-03-08T19:59:00.770Z,96929.81
2023-03-08T20:02:09.409Z,96924.51
2023-03-08T20:05:18.817Z,96917.21
2023-03-08T20:08:26.716Z,96916.34
2023-03-08T20:11:33.743Z,96914.00
2023-03-08T20:14:40.790Z,96919.45
2023-03-08T20:17:48.390Z,96922.73
2023-03-08T20:20:57.378Z,96919.72
2023-03-08T20:24:04.336Z,96919.60
2023-03-08T20:27:11.242Z,96920.85
2023-03-08T20:30:18.709Z,96920.42
2023-03-08T20:33:25.433Z,96914.52
2023-03-08T20:36:32.316Z,96911.59
2023-03-08T20:39:39.146Z,96905.17
2023-03-08T20:42:46.055Z,96900.70
2023-03-08T20:45:52.874Z,96889.84
2023-03-08T20:48:59.869Z,96878.58
2023-03-08T20:52:07.216Z,96865.86
2023-03-08T20:55:14.110Z,96858.05
2023-03-08T20:58:20.941Z,96857.16
2023-03-08T21:01:30.164Z,96853.17
2023-03-08T21:04:37.081Z,96854.80
2023-03-08T21:07:44.047Z,96853.36
2023-03-08T21:10:50.813Z,96852.23
2023-03-08T21:13:58.017Z,96854.95
2023-03-08T21:17:04.713Z,96852.73
2023-03-08T21:20:13.461Z,96849.67
2023-03-08T21:23:23.363Z,96849.25
2023-03-08T21:26:31.102Z,96849.39
2023-03-08T21:29:37.858Z,96840.44
2023-03-08T21:32:44.730Z,96837.82
2023-03-08T21:35:51.826Z,96835.31
2023-03-08T21:38:59.774Z,96829.19
2023-03-08T21:42:07.024Z,96822.75
2023-03-08T21:45:15.168Z,96821.38
2023-03-08T21:48:22.032Z,96818.00
2023-03-08T21:51:28.869Z,96815.65
2023-03-08T21:54:35.759Z,96809.21
2023-03-08T21:57:42.665Z,96805.38
2023-03-08T22:00:49.531Z,96804.35
2023-03-08T22:03:56.942Z,96801.19
2023-03-08T22:07:03.728Z,96793.95
2023-03-08T22:10:13.809Z,96796.12
2023-03-08T22:13:20.669Z,96794.38
2023-03-08T22:16:28.292Z,96789.88
2023-03-08T22:19:35.189Z,96789.45
2023-03-08T22:22:44.148Z,96781.80
2023-03-08T22:25:51.124Z,96777.36
2023-03-08T22:28:58.429Z,96779.92
2023-03-08T22:32:05.598Z,96780.26
2023-03-08T22:35:13.611Z,96779.20
2023-03-08T22:38:21.120Z,96781.54
2023-03-08T22:41:29.141Z,96785.40
2023-03-08T22:44:36.004Z,96788.09
2023-03-08T22:47:42.928Z,96784.15
2023-03-08T22:50:56.309Z,96788.13
2023-03-08T22:54:09.102Z,96789.03
2023-03-08T22:57:16.925Z,96786.50
2023-03-08T23:00:24.022Z,96789.20
2023-03-08T23:03:31.593Z,96789.73
2023-03-08T23:06:38.502Z,96796.30
2023-03-08T23:09:45.364Z,96791.77
2023-03-08T23:12:52.268Z,96786.88
2023-03-08T23:15:59.030Z,96785.70
2023-03-08T23:19:06.555Z,96784.35
2023-03-08T23:22:13.615Z,96788.33
2023-03-08T23:25:20.930Z,96784.98
2023-03-08T23:28:28.096Z,96781.67
2023-03-08T23:31:36.701Z,96782.33
2023-03-08T23:34:43.572Z,96779.48
2023-03-08T23:37:50.359Z,96778.20
2023-03-08T23:40:57.060Z,96777.64
2023-03-08T23:44:04.210Z,96779.75
2023-03-08T23:47:11.118Z,96782.64
2023-03-08T23:50:18.199Z,96779.60
2023-03-08T23:53:25.073Z,96778.31
2023-03-08T23:56:38.260Z,96779.58
2023-03-08T23:59:45.293Z,96782.95
